sensor_id;sensor_type;location;lat;lon;timestamp;temperature;humidity
32877;DHT22;19226;51.600;8.034;2023-05-02T00:00:22;13.40;99.90
32877;DHT22;19226;51.600;8.034;2023-05-02T00:03:07;13.30;99.90
32877;DHT22;19226;51.600;8.034;2023-05-02T00:05:52;13.30;99.90
32877;DHT22;19226;51.600;8.034;2023-05-02T00:08:36;13.30;99.90
32877;DHT22;19226;51.600;8.034;2023-05-02T00:11:21;13.30;99.90
32877;DHT22;19226;51.600;8.034;2023-05-02T00:14:07;13.30;99.90
32877;DHT22;19226;51.600;8.034;2023-05-02T00:16:51;13.30;99.90
32877;DHT22;19226;51.600;8.034;2023-05-02T00:19:39;13.30;99.90
32877;DHT22;19226;51.600;8.034;2023-05-02T00:22:24;13.30;99.90
32877;DHT22;19226;51.600;8.034;2023-05-02T00:25:08;13.30;99.90
32877;DHT22;19226;51.600;8.034;2023-05-02T00:27:53;13.30;99.90
32877;DHT22;19226;51.600;8.034;2023-05-02T00:30:43;13.30;99.90
32877;DHT22;19226;51.600;8.034;2023-05-02T00:33:27;13.30;99.90
32877;DHT22;19226;51.600;8.034;2023-05-02T00:36:17;13.30;99.90
32877;DHT22;19226;51.600;8.034;2023-05-02T00:39:02;13.30;99.90
32877;DHT22;19226;51.600;8.034;2023-05-02T00:41:47;13.20;99.90
32877;DHT22;19226;51.600;8.034;2023-05-02T00:44:32;13.10;99.90
32877;DHT22;19226;51.600;8.034;2023-05-02T00:47:16;13.20;99.90
32877;DHT22;19226;51.600;8.034;2023-05-02T00:50:01;13.10;99.90
32877;DHT22;19226;51.600;8.034;2023-05-02T00:52:48;13.10;99.90
32877;DHT22;19226;51.600;8.034;2023-05-02T00:55:33;13.10;99.90
32877;DHT22;19226;51.600;8.034;2023-05-02T00:58:18;13.10;99.90
32877;DHT22;19226;51.600;8.034;2023-05-02T01:01:35;13.00;99.90
32877;DHT22;19226;51.600;8.034;2023-05-02T01:08:03;13.10;99.90
32877;DHT22;19226;51.600;8.034;2023-05-02T01:11:01;13.00;99.90
32877;DHT22;19226;51.600;8.034;2023-05-02T01:13:50;13.00;99.90
32877;DHT22;19226;51.600;8.034;2023-05-02T01:16:38;13.00;99.90
32877;DHT22;19226;51.600;8.034;2023-05-02T01:19:28;12.90;99.90
32877;DHT22;19226;51.600;8.034;2023-05-02T01:22:15;12.90;99.90
32877;DHT22;19226;51.600;8.034;2023-05-02T01:25:07;12.90;99.90
32877;DHT22;19226;51.600;8.034;2023-05-02T01:28:26;12.90;99.90
32877;DHT22;19226;51.600;8.034;2023-05-02T01:31:13;12.90;99.90
32877;DHT22;19226;51.600;8.034;2023-05-02T01:34:00;12.80;99.90
32877;DHT22;19226;51.600;8.034;2023-05-02T01:36:47;12.80;99.90
32877;DHT22;19226;51.600;8.034;2023-05-02T01:39:34;12.80;99.90
32877;DHT22;19226;51.600;8.034;2023-05-02T01:42:20;12.80;99.90
32877;DHT22;19226;51.600;8.034;2023-05-02T01:45:07;12.70;99.90
32877;DHT22;19226;51.600;8.034;2023-05-02T01:47:53;12.80;99.90
32877;DHT22;19226;51.600;8.034;2023-05-02T01:50:40;12.80;99.90
32877;DHT22;19226;51.600;8.034;2023-05-02T01:53:27;12.80;99.90
32877;DHT22;19226;51.600;8.034;2023-05-02T01:56:14;12.80;99.90
32877;DHT22;19226;51.600;8.034;2023-05-02T01:59:01;12.80;99.90
32877;DHT22;19226;51.600;8.034;2023-05-02T02:01:50;12.80;99.90
32877;DHT22;19226;51.600;8.034;2023-05-02T02:04:36;12.80;99.90
32877;DHT22;19226;51.600;8.034;2023-05-02T02:07:22;12.80;99.90
32877;DHT22;19226;51.600;8.034;2023-05-02T02:10:07;12.70;99.90
32877;DHT22;19226;51.600;8.034;2023-05-02T02:12:53;12.70;99.90
32877;DHT22;19226;51.600;8.034;2023-05-02T02:15:40;12.70;99.90
32877;DHT22;19226;51.600;8.034;2023-05-02T02:18:26;12.60;99.90
32877;DHT22;19226;51.600;8.034;2023-05-02T02:21:16;12.60;99.90
32877;DHT22;19226;51.600;8.034;2023-05-02T02:24:02;12.50;99.90
32877;DHT22;19226;51.600;8.034;2023-05-02T02:26:48;12.50;99.90
32877;DHT22;19226;51.600;8.034;2023-05-02T02:29:33;12.40;99.90
32877;DHT22;19226;51.600;8.034;2023-05-02T02:32:17;12.30;99.90
32877;DHT22;19226;51.600;8.034;2023-05-02T02:35:02;12.10;99.90
32877;DHT22;19226;51.600;8.034;2023-05-02T02:40:41;12.10;99.90
32877;DHT22;19226;51.600;8.034;2023-05-02T02:43:38;12.00;99.90
32877;DHT22;19226;51.600;8.034;2023-05-02T02:47:22;12.00;99.90
32877;DHT22;19226;51.600;8.034;2023-05-02T02:52:59;11.90;99.90
32877;DHT22;19226;51.600;8.034;2023-05-02T02:56:05;11.90;99.90
32877;DHT22;19226;51.600;8.034;2023-05-02T02:59:26;11.90;99.90
32877;DHT22;19226;51.600;8.034;2023-05-02T03:02:14;11.90;99.90
32877;DHT22;19226;51.600;8.034;2023-05-02T03:05:01;11.90;99.90
32877;DHT22;19226;51.600;8.034;2023-05-02T03:07:47;11.90;99.90
32877;DHT22;19226;51.600;8.034;2023-05-02T03:10:31;11.90;99.90
32877;DHT22;19226;51.600;8.034;2023-05-02T03:13:17;11.90;99.90
32877;DHT22;19226;51.600;8.034;2023-05-02T03:16:26;11.80;99.90
32877;DHT22;19226;51.600;8.034;2023-05-02T03:19:12;11.90;99.90
32877;DHT22;19226;51.600;8.034;2023-05-02T03:21:57;11.90;99.90
32877;DHT22;19226;51.600;8.034;2023-05-02T03:24:42;11.90;99.90
32877;DHT22;19226;51.600;8.034;2023-05-02T03:27:28;11.90;99.90
32877;DHT22;19226;51.600;8.034;2023-05-02T03:30:16;12.00;99.90
32877;DHT22;19226;51.600;8.034;2023-05-02T03:33:00;12.00;99.90
32877;DHT22;19226;51.600;8.034;2023-05-02T03:35:49;12.00;99.90
32877;DHT22;19226;51.600;8.034;2023-05-02T03:38:33;11.90;99.90
32877;DHT22;19226;51.600;8.034;2023-05-02T03:41:23;11.90;99.90
32877;DHT22;19226;51.600;8.034;2023-05-02T03:44:14;12.00;99.90
32877;DHT22;19226;51.600;8.034;2023-05-02T03:46:58;12.00;99.90
32877;DHT22;19226;51.600;8.034;2023-05-02T03:49:44;12.00;99.90
32877;DHT22;19226;51.600;8.034;2023-05-02T03:52:29;12.00;99.90
32877;DHT22;19226;51.600;8.034;2023-05-02T03:55:14;12.00;99.90
32877;DHT22;19226;51.600;8.034;2023-05-02T03:57:59;11.90;99.90
32877;DHT22;19226;51.600;8.034;2023-05-02T04:00:44;12.00;99.90
32877;DHT22;19226;51.600;8.034;2023-05-02T04:03:28;11.90;99.90
32877;DHT22;19226;51.600;8.034;2023-05-02T04:06:13;11.90;99.90
32877;DHT22;19226;51.600;8.034;2023-05-02T04:09:00;12.00;99.90
32877;DHT22;19226;51.600;8.034;2023-05-02T04:11:51;12.00;99.90
32877;DHT22;19226;51.600;8.034;2023-05-02T04:14:36;12.00;99.90
32877;DHT22;19226;51.600;8.034;2023-05-02T04:17:22;12.00;99.90
32877;DHT22;19226;51.600;8.034;2023-05-02T04:20:10;12.00;99.90
32877;DHT22;19226;51.600;8.034;2023-05-02T04:22:58;12.00;99.90
32877;DHT22;19226;51.600;8.034;2023-05-02T04:25:53;12.00;99.90
32877;DHT22;19226;51.600;8.034;2023-05-02T04:28:39;12.00;99.90
32877;DHT22;19226;51.600;8.034;2023-05-02T04:31:25;12.00;99.90
32877;DHT22;19226;51.600;8.034;2023-05-02T04:34:10;11.90;99.90
32877;DHT22;19226;51.600;8.034;2023-05-02T04:37:00;11.90;99.90
32877;DHT22;19226;51.600;8.034;2023-05-02T04:39:45;11.90;99.90
32877;DHT22;19226;51.600;8.034;2023-05-02T04:42:35;11.80;99.90
32877;DHT22;19226;51.600;8.034;2023-05-02T04:45:31;11.80;99.90
32877;DHT22;19226;51.600;8.034;2023-05-02T04:48:16;11.90;99.90
32877;DHT22;19226;51.600;8.034;2023-05-02T04:51:01;11.90;99.90
32877;DHT22;19226;51.600;8.034;2023-05-02T04:53:47;11.80;99.90
32877;DHT22;19226;51.600;8.034;2023-05-02T04:56:32;11.80;99.90
32877;DHT22;19226;51.600;8.034;2023-05-02T04:59:17;11.70;99.90
32877;DHT22;19226;51.600;8.034;2023-05-02T05:02:01;11.60;99.90
32877;DHT22;19226;51.600;8.034;2023-05-02T05:04:46;11.60;99.90
32877;DHT22;19226;51.600;8.034;2023-05-02T05:07:31;11.60;99.90
32877;DHT22;19226;51.600;8.034;2023-05-02T05:10:16;11.70;99.90
32877;DHT22;19226;51.600;8.034;2023-05-02T05:13:04;11.70;99.90
32877;DHT22;19226;51.600;8.034;2023-05-02T05:15:50;11.70;99.90
32877;DHT22;19226;51.600;8.034;2023-05-02T05:18:36;11.70;99.90
32877;DHT22;19226;51.600;8.034;2023-05-02T05:21:25;11.80;99.90
32877;DHT22;19226;51.600;8.034;2023-05-02T05:24:11;11.80;99.90
32877;DHT22;19226;51.600;8.034;2023-05-02T05:26:55;11.70;99.90
32877;DHT22;19226;51.600;8.034;2023-05-02T05:29:41;11.70;99.90
32877;DHT22;19226;51.600;8.034;2023-05-02T05:32:26;11.80;99.90
32877;DHT22;19226;51.600;8.034;2023-05-02T05:35:11;11.80;99.90
32877;DHT22;19226;51.600;8.034;2023-05-02T05:37:57;11.70;99.90
32877;DHT22;19226;51.600;8.034;2023-05-02T05:40:41;11.70;99.90
32877;DHT22;19226;51.600;8.034;2023-05-02T05:43:28;11.70;99.90
32877;DHT22;19226;51.600;8.034;2023-05-02T05:46:12;11.80;99.90
32877;DHT22;19226;51.600;8.034;2023-05-02T05:48:57;11.80;99.90
32877;DHT22;19226;51.600;8.034;2023-05-02T05:51:43;11.80;99.90
32877;DHT22;19226;51.600;8.034;2023-05-02T05:54:28;11.70;99.90
32877;DHT22;19226;51.600;8.034;2023-05-02T05:57:12;11.80;99.90
32877;DHT22;19226;51.600;8.034;2023-05-02T05:59:57;11.70;99.90
32877;DHT22;19226;51.600;8.034;2023-05-02T06:02:43;11.80;99.90
32877;DHT22;19226;51.600;8.034;2023-05-02T06:05:37;11.80;99.90
32877;DHT22;19226;51.600;8.034;2023-05-02T06:08:21;11.80;99.90
32877;DHT22;19226;51.600;8.034;2023-05-02T06:11:09;11.80;99.90
32877;DHT22;19226;51.600;8.034;2023-05-02T06:13:55;11.70;99.90
32877;DHT22;19226;51.600;8.034;2023-05-02T06:16:39;11.70;99.90
32877;DHT22;19226;51.600;8.034;2023-05-02T06:19:25;11.60;99.90
32877;DHT22;19226;51.600;8.034;2023-05-02T06:22:13;11.60;99.90
32877;DHT22;19226;51.600;8.034;2023-05-02T06:24:57;11.60;99.90
32877;DHT22;19226;51.600;8.034;2023-05-02T06:27:42;11.60;99.90
32877;DHT22;19226;51.600;8.034;2023-05-02T06:30:26;11.60;99.90
32877;DHT22;19226;51.600;8.034;2023-05-02T06:33:11;11.50;99.90
32877;DHT22;19226;51.600;8.034;2023-05-02T06:35:56;11.40;99.90
32877;DHT22;19226;51.600;8.034;2023-05-02T06:38:40;11.30;99.90
32877;DHT22;19226;51.600;8.034;2023-05-02T06:41:25;11.30;99.90
32877;DHT22;19226;51.600;8.034;2023-05-02T06:44:10;11.30;99.90
32877;DHT22;19226;51.600;8.034;2023-05-02T06:46:54;11.40;99.90
32877;DHT22;19226;51.600;8.034;2023-05-02T06:49:39;11.40;99.90
32877;DHT22;19226;51.600;8.034;2023-05-02T06:52:24;11.30;99.90
32877;DHT22;19226;51.600;8.034;2023-05-02T06:55:08;11.40;99.90
32877;DHT22;19226;51.600;8.034;2023-05-02T06:57:53;11.40;99.90
32877;DHT22;19226;51.600;8.034;2023-05-02T07:00:38;11.40;99.90
32877;DHT22;19226;51.600;8.034;2023-05-02T07:03:22;11.40;99.90
32877;DHT22;19226;51.600;8.034;2023-05-02T07:06:07;11.50;99.90
32877;DHT22;19226;51.600;8.034;2023-05-02T07:08:51;11.50;99.90
32877;DHT22;19226;51.600;8.034;2023-05-02T07:11:36;11.50;99.90
32877;DHT22;19226;51.600;8.034;2023-05-02T07:14:20;11.60;99.90
32877;DHT22;19226;51.600;8.034;2023-05-02T07:17:05;11.60;99.90
32877;DHT22;19226;51.600;8.034;2023-05-02T07:19:50;11.60;99.90
32877;DHT22;19226;51.600;8.034;2023-05-02T07:22:35;11.70;99.90
32877;DHT22;19226;51.600;8.034;2023-05-02T07:25:19;11.70;99.90
32877;DHT22;19226;51.600;8.034;2023-05-02T07:28:05;11.70;99.90
32877;DHT22;19226;51.600;8.034;2023-05-02T07:30:49;11.70;99.90
32877;DHT22;19226;51.600;8.034;2023-05-02T07:33:34;11.70;99.90
32877;DHT22;19226;51.600;8.034;2023-05-02T07:36:18;11.80;99.90
32877;DHT22;19226;51.600;8.034;2023-05-02T07:39:03;11.80;99.90
32877;DHT22;19226;51.600;8.034;2023-05-02T07:41:53;11.90;99.90
32877;DHT22;19226;51.600;8.034;2023-05-02T07:44:38;11.90;99.90
32877;DHT22;19226;51.600;8.034;2023-05-02T07:47:22;11.90;99.90
32877;DHT22;19226;51.600;8.034;2023-05-02T07:50:07;12.00;99.90
32877;DHT22;19226;51.600;8.034;2023-05-02T07:52:54;12.00;99.90
32877;DHT22;19226;51.600;8.034;2023-05-02T07:55:39;12.00;99.90
32877;DHT22;19226;51.600;8.034;2023-05-02T07:58:23;11.80;99.90
32877;DHT22;19226;51.600;8.034;2023-05-02T08:01:08;11.50;99.90
32877;DHT22;19226;51.600;8.034;2023-05-02T08:03:52;11.50;99.90
32877;DHT22;19226;51.600;8.034;2023-05-02T08:06:37;11.50;99.90
32877;DHT22;19226;51.600;8.034;2023-05-02T08:09:21;11.60;99.90
32877;DHT22;19226;51.600;8.034;2023-05-02T08:12:06;11.40;99.90
32877;DHT22;19226;51.600;8.034;2023-05-02T08:14:50;11.20;99.90
32877;DHT22;19226;51.600;8.034;2023-05-02T08:17:35;11.20;99.90
32877;DHT22;19226;51.600;8.034;2023-05-02T08:20:19;11.20;99.90
32877;DHT22;19226;51.600;8.034;2023-05-02T08:23:05;11.10;99.90
32877;DHT22;19226;51.600;8.034;2023-05-02T08:25:49;11.20;99.90
32877;DHT22;19226;51.600;8.034;2023-05-02T08:28:34;11.10;99.90
32877;DHT22;19226;51.600;8.034;2023-05-02T08:31:19;10.90;99.90
32877;DHT22;19226;51.600;8.034;2023-05-02T08:34:04;10.90;99.90
32877;DHT22;19226;51.600;8.034;2023-05-02T08:36:48;10.80;99.90
32877;DHT22;19226;51.600;8.034;2023-05-02T08:39:33;10.70;99.90
32877;DHT22;19226;51.600;8.034;2023-05-02T08:42:18;10.70;99.90
32877;DHT22;19226;51.600;8.034;2023-05-02T08:45:05;10.70;99.90
32877;DHT22;19226;51.600;8.034;2023-05-02T08:47:53;10.60;99.90
32877;DHT22;19226;51.600;8.034;2023-05-02T08:50:39;10.60;99.90
32877;DHT22;19226;51.600;8.034;2023-05-02T08:53:25;10.60;99.90
32877;DHT22;19226;51.600;8.034;2023-05-02T08:56:11;10.70;99.90
32877;DHT22;19226;51.600;8.034;2023-05-02T08:58:55;10.70;99.90
32877;DHT22;19226;51.600;8.034;2023-05-02T09:01:41;10.80;99.90
32877;DHT22;19226;51.600;8.034;2023-05-02T09:04:30;10.80;99.90
32877;DHT22;19226;51.600;8.034;2023-05-02T09:07:18;10.90;99.90
32877;DHT22;19226;51.600;8.034;2023-05-02T09:10:03;10.90;99.90
32877;DHT22;19226;51.600;8.034;2023-05-02T09:12:48;10.90;99.90
32877;DHT22;19226;51.600;8.034;2023-05-02T09:15:32;10.90;99.90
32877;DHT22;19226;51.600;8.034;2023-05-02T09:18:20;10.80;99.90
32877;DHT22;19226;51.600;8.034;2023-05-02T09:21:08;10.80;99.90
32877;DHT22;19226;51.600;8.034;2023-05-02T09:23:55;10.80;99.90
32877;DHT22;19226;51.600;8.034;2023-05-02T09:26:41;10.90;99.90
32877;DHT22;19226;51.600;8.034;2023-05-02T09:29:26;10.90;99.90
32877;DHT22;19226;51.600;8.034;2023-05-02T09:32:13;10.80;99.90
32877;DHT22;19226;51.600;8.034;2023-05-02T09:35:05;10.80;99.90
32877;DHT22;19226;51.600;8.034;2023-05-02T09:37:54;10.80;99.90
32877;DHT22;19226;51.600;8.034;2023-05-02T09:40:52;10.80;99.90
32877;DHT22;19226;51.600;8.034;2023-05-02T09:43:38;10.90;99.90
32877;DHT22;19226;51.600;8.034;2023-05-02T09:46:23;10.90;99.90
32877;DHT22;19226;51.600;8.034;2023-05-02T09:49:08;10.90;99.90
32877;DHT22;19226;51.600;8.034;2023-05-02T09:52:12;10.90;99.90
32877;DHT22;19226;51.600;8.034;2023-05-02T09:54:56;10.90;99.90
32877;DHT22;19226;51.600;8.034;2023-05-02T09:57:41;10.90;99.90
32877;DHT22;19226;51.600;8.034;2023-05-02T10:00:38;10.90;99.90
32877;DHT22;19226;51.600;8.034;2023-05-02T10:03:24;11.00;99.90
32877;DHT22;19226;51.600;8.034;2023-05-02T10:06:09;10.90;99.90
32877;DHT22;19226;51.600;8.034;2023-05-02T10:08:55;10.90;99.90
32877;DHT22;19226;51.600;8.034;2023-05-02T10:11:41;10.90;99.90
32877;DHT22;19226;51.600;8.034;2023-05-02T10:14:27;10.90;99.90
32877;DHT22;19226;51.600;8.034;2023-05-02T10:17:21;10.90;99.90
32877;DHT22;19226;51.600;8.034;2023-05-02T10:20:13;11.00;99.90
32877;DHT22;19226;51.600;8.034;2023-05-02T10:23:00;11.00;99.90
32877;DHT22;19226;51.600;8.034;2023-05-02T10:25:45;11.10;99.90
32877;DHT22;19226;51.600;8.034;2023-05-02T10:28:29;11.10;99.90
32877;DHT22;19226;51.600;8.034;2023-05-02T10:31:15;11.20;99.90
32877;DHT22;19226;51.600;8.034;2023-05-02T10:34:02;11.20;99.90
32877;DHT22;19226;51.600;8.034;2023-05-02T10:36:46;11.30;99.90
32877;DHT22;19226;51.600;8.034;2023-05-02T10:39:32;11.30;99.90
32877;DHT22;19226;51.600;8.034;2023-05-02T10:42:18;11.40;99.90
32877;DHT22;19226;51.600;8.034;2023-05-02T10:45:04;11.50;99.90
32877;DHT22;19226;51.600;8.034;2023-05-02T10:47:49;11.60;99.90
32877;DHT22;19226;51.600;8.034;2023-05-02T10:50:48;11.60;99.90
32877;DHT22;19226;51.600;8.034;2023-05-02T10:53:35;11.70;99.90
32877;DHT22;19226;51.600;8.034;2023-05-02T10:56:20;11.90;99.90
32877;DHT22;19226;51.600;8.034;2023-05-02T10:59:28;12.00;99.90
32877;DHT22;19226;51.600;8.034;2023-05-02T11:05:11;12.20;99.90
32877;DHT22;19226;51.600;8.034;2023-05-02T11:17:14;12.20;99.90
32877;DHT22;19226;51.600;8.034;2023-05-02T11:22:49;12.10;99.90
32877;DHT22;19226;51.600;8.034;2023-05-02T11:25:36;12.00;99.90
32877;DHT22;19226;51.600;8.034;2023-05-02T11:34:11;12.10;99.90
32877;DHT22;19226;51.600;8.034;2023-05-02T11:36:56;12.10;99.90
32877;DHT22;19226;51.600;8.034;2023-05-02T11:39:41;12.10;99.90
32877;DHT22;19226;51.600;8.034;2023-05-02T11:42:30;12.30;99.90
32877;DHT22;19226;51.600;8.034;2023-05-02T11:45:15;12.40;99.90
32877;DHT22;19226;51.600;8.034;2023-05-02T11:48:00;12.50;99.90
32877;DHT22;19226;51.600;8.034;2023-05-02T11:50:50;12.60;99.90
32877;DHT22;19226;51.600;8.034;2023-05-02T11:53:39;12.60;99.90
32877;DHT22;19226;51.600;8.034;2023-05-02T11:56:25;12.60;99.90
32877;DHT22;19226;51.600;8.034;2023-05-02T11:59:10;12.60;99.90
32877;DHT22;19226;51.600;8.034;2023-05-02T12:01:54;12.50;99.90
32877;DHT22;19226;51.600;8.034;2023-05-02T12:04:44;12.50;99.90
32877;DHT22;19226;51.600;8.034;2023-05-02T12:07:39;12.50;99.90
32877;DHT22;19226;51.600;8.034;2023-05-02T12:10:35;12.40;99.90
32877;DHT22;19226;51.600;8.034;2023-05-02T12:13:24;12.50;99.90
32877;DHT22;19226;51.600;8.034;2023-05-02T12:16:09;12.60;99.90
32877;DHT22;19226;51.600;8.034;2023-05-02T12:18:55;12.50;99.90
32877;DHT22;19226;51.600;8.034;2023-05-02T12:21:42;12.60;99.90
32877;DHT22;19226;51.600;8.034;2023-05-02T12:24:27;12.70;99.90
32877;DHT22;19226;51.600;8.034;2023-05-02T12:27:14;12.80;99.90
32877;DHT22;19226;51.600;8.034;2023-05-02T12:29:59;12.90;99.90
32877;DHT22;19226;51.600;8.034;2023-05-02T12:32:44;13.00;99.90
32877;DHT22;19226;51.600;8.034;2023-05-02T12:35:30;13.00;99.90
32877;DHT22;19226;51.600;8.034;2023-05-02T12:38:16;12.90;99.90
32877;DHT22;19226;51.600;8.034;2023-05-02T12:41:02;12.90;99.90
32877;DHT22;19226;51.600;8.034;2023-05-02T12:43:47;12.90;99.90
32877;DHT22;19226;51.600;8.034;2023-05-02T12:46:32;13.00;99.90
32877;DHT22;19226;51.600;8.034;2023-05-02T12:49:16;13.00;99.90
32877;DHT22;19226;51.600;8.034;2023-05-02T12:52:01;13.10;99.90
32877;DHT22;19226;51.600;8.034;2023-05-02T12:54:46;13.20;99.90
32877;DHT22;19226;51.600;8.034;2023-05-02T12:57:30;13.20;99.90
32877;DHT22;19226;51.600;8.034;2023-05-02T13:00:16;13.30;99.90
32877;DHT22;19226;51.600;8.034;2023-05-02T13:03:01;13.40;99.90
32877;DHT22;19226;51.600;8.034;2023-05-02T13:05:45;13.50;99.90
32877;DHT22;19226;51.600;8.034;2023-05-02T13:08:31;13.60;99.90
32877;DHT22;19226;51.600;8.034;2023-05-02T13:11:17;13.60;99.90
32877;DHT22;19226;51.600;8.034;2023-05-02T13:14:01;13.70;99.90
32877;DHT22;19226;51.600;8.034;2023-05-02T13:16:48;13.80;99.90
32877;DHT22;19226;51.600;8.034;2023-05-02T13:19:33;13.90;99.90
32877;DHT22;19226;51.600;8.034;2023-05-02T13:22:17;14.10;99.90
32877;DHT22;19226;51.600;8.034;2023-05-02T13:25:06;14.20;99.90
32877;DHT22;19226;51.600;8.034;2023-05-02T13:27:51;14.30;99.90
32877;DHT22;19226;51.600;8.034;2023-05-02T13:30:35;14.40;99.90
32877;DHT22;19226;51.600;8.034;2023-05-02T13:33:20;14.50;99.90
32877;DHT22;19226;51.600;8.034;2023-05-02T13:36:04;14.60;99.90
32877;DHT22;19226;51.600;8.034;2023-05-02T13:38:49;14.70;99.90
32877;DHT22;19226;51.600;8.034;2023-05-02T13:41:34;14.80;99.90
32877;DHT22;19226;51.600;8.034;2023-05-02T13:44:19;14.80;99.90
32877;DHT22;19226;51.600;8.034;2023-05-02T13:47:04;14.90;99.90
32877;DHT22;19226;51.600;8.034;2023-05-02T13:49:48;14.90;99.90
32877;DHT22;19226;51.600;8.034;2023-05-02T13:52:33;15.00;99.90
32877;DHT22;19226;51.600;8.034;2023-05-02T13:55:17;15.10;99.90
32877;DHT22;19226;51.600;8.034;2023-05-02T13:58:03;15.10;99.90
32877;DHT22;19226;51.600;8.034;2023-05-02T14:00:48;15.10;99.90
32877;DHT22;19226;51.600;8.034;2023-05-02T14:03:32;15.20;99.90
32877;DHT22;19226;51.600;8.034;2023-05-02T14:06:17;15.30;99.90
32877;DHT22;19226;51.600;8.034;2023-05-02T14:09:02;15.40;99.90
32877;DHT22;19226;51.600;8.034;2023-05-02T14:11:47;15.30;99.90
32877;DHT22;19226;51.600;8.034;2023-05-02T14:14:32;15.40;99.90
32877;DHT22;19226;51.600;8.034;2023-05-02T14:17:16;15.50;99.90
32877;DHT22;19226;51.600;8.034;2023-05-02T14:20:00;15.70;99.90
32877;DHT22;19226;51.600;8.034;2023-05-02T14:22:45;15.90;99.90
32877;DHT22;19226;51.600;8.034;2023-05-02T14:25:30;15.90;99.90
32877;DHT22;19226;51.600;8.034;2023-05-02T14:28:14;16.00;99.90
32877;DHT22;19226;51.600;8.034;2023-05-02T14:30:59;15.90;99.90
32877;DHT22;19226;51.600;8.034;2023-05-02T14:33:44;16.00;99.90
32877;DHT22;19226;51.600;8.034;2023-05-02T14:36:29;16.20;99.90
32877;DHT22;19226;51.600;8.034;2023-05-02T14:39:13;16.10;99.90
32877;DHT22;19226;51.600;8.034;2023-05-02T14:41:58;16.10;99.90
32877;DHT22;19226;51.600;8.034;2023-05-02T14:44:42;16.00;99.90
32877;DHT22;19226;51.600;8.034;2023-05-02T14:47:27;15.90;99.90
32877;DHT22;19226;51.600;8.034;2023-05-02T14:50:14;15.90;99.90
32877;DHT22;19226;51.600;8.034;2023-05-02T14:52:59;15.60;99.90
32877;DHT22;19226;51.600;8.034;2023-05-02T14:55:44;15.50;99.90
32877;DHT22;19226;51.600;8.034;2023-05-02T14:58:29;15.80;99.90
32877;DHT22;19226;51.600;8.034;2023-05-02T15:01:20;16.10;99.90
32877;DHT22;19226;51.600;8.034;2023-05-02T15:04:05;16.40;99.90
32877;DHT22;19226;51.600;8.034;2023-05-02T15:06:50;16.60;99.90
32877;DHT22;19226;51.600;8.034;2023-05-02T15:09:36;16.70;99.90
32877;DHT22;19226;51.600;8.034;2023-05-02T15:12:21;16.90;99.90
32877;DHT22;19226;51.600;8.034;2023-05-02T15:15:06;17.20;99.90
32877;DHT22;19226;51.600;8.034;2023-05-02T15:17:51;17.50;99.90
32877;DHT22;19226;51.600;8.034;2023-05-02T15:20:36;17.70;99.90
32877;DHT22;19226;51.600;8.034;2023-05-02T15:23:21;17.90;99.90
32877;DHT22;19226;51.600;8.034;2023-05-02T15:26:05;18.00;99.90
32877;DHT22;19226;51.600;8.034;2023-05-02T15:28:50;18.10;99.90
32877;DHT22;19226;51.600;8.034;2023-05-02T15:31:34;17.80;99.90
32877;DHT22;19226;51.600;8.034;2023-05-02T15:34:19;17.80;99.90
32877;DHT22;19226;51.600;8.034;2023-05-02T15:37:04;17.70;99.90
32877;DHT22;19226;51.600;8.034;2023-05-02T15:39:49;17.50;99.90
32877;DHT22;19226;51.600;8.034;2023-05-02T15:42:35;17.60;99.90
32877;DHT22;19226;51.600;8.034;2023-05-02T15:45:20;17.60;99.90
32877;DHT22;19226;51.600;8.034;2023-05-02T15:48:04;17.90;99.90
32877;DHT22;19226;51.600;8.034;2023-05-02T15:50:49;17.90;99.90
32877;DHT22;19226;51.600;8.034;2023-05-02T15:53:34;18.20;99.90
32877;DHT22;19226;51.600;8.034;2023-05-02T15:56:22;18.30;99.90
32877;DHT22;19226;51.600;8.034;2023-05-02T15:59:07;18.10;99.90
32877;DHT22;19226;51.600;8.034;2023-05-02T16:01:51;18.00;99.90
32877;DHT22;19226;51.600;8.034;2023-05-02T16:04:36;17.80;99.90
32877;DHT22;19226;51.600;8.034;2023-05-02T16:07:21;18.00;99.90
32877;DHT22;19226;51.600;8.034;2023-05-02T16:10:06;18.50;99.90
32877;DHT22;19226;51.600;8.034;2023-05-02T16:12:51;18.50;99.90
32877;DHT22;19226;51.600;8.034;2023-05-02T16:15:37;18.30;99.90
32877;DHT22;19226;51.600;8.034;2023-05-02T16:18:21;18.10;99.90
32877;DHT22;19226;51.600;8.034;2023-05-02T16:21:11;17.90;99.90
32877;DHT22;19226;51.600;8.034;2023-05-02T16:23:55;17.60;99.90
32877;DHT22;19226;51.600;8.034;2023-05-02T16:26:40;17.40;99.90
32877;DHT22;19226;51.600;8.034;2023-05-02T16:29:25;17.40;99.90
32877;DHT22;19226;51.600;8.034;2023-05-02T16:32:09;17.30;99.90
32877;DHT22;19226;51.600;8.034;2023-05-02T16:34:54;17.30;99.90
32877;DHT22;19226;51.600;8.034;2023-05-02T16:37:39;17.30;99.90
32877;DHT22;19226;51.600;8.034;2023-05-02T16:40:24;17.20;99.90
32877;DHT22;19226;51.600;8.034;2023-05-02T16:43:08;17.10;99.90
32877;DHT22;19226;51.600;8.034;2023-05-02T16:46:06;17.10;99.90
32877;DHT22;19226;51.600;8.034;2023-05-02T16:48:51;17.00;99.90
32877;DHT22;19226;51.600;8.034;2023-05-02T16:51:35;16.90;99.90
32877;DHT22;19226;51.600;8.034;2023-05-02T16:54:20;16.80;99.90
32877;DHT22;19226;51.600;8.034;2023-05-02T16:57:05;16.70;99.90
32877;DHT22;19226;51.600;8.034;2023-05-02T16:59:51;16.70;99.90
32877;DHT22;19226;51.600;8.034;2023-05-02T17:02:36;16.60;99.90
32877;DHT22;19226;51.600;8.034;2023-05-02T17:05:20;16.50;99.90
32877;DHT22;19226;51.600;8.034;2023-05-02T17:08:05;16.50;99.90
32877;DHT22;19226;51.600;8.034;2023-05-02T17:10:50;16.50;99.90
32877;DHT22;19226;51.600;8.034;2023-05-02T17:13:34;16.30;99.90
32877;DHT22;19226;51.600;8.034;2023-05-02T17:16:20;16.20;99.90
32877;DHT22;19226;51.600;8.034;2023-05-02T17:19:05;16.20;99.90
32877;DHT22;19226;51.600;8.034;2023-05-02T17:21:50;16.10;99.90
32877;DHT22;19226;51.600;8.034;2023-05-02T17:24:35;16.10;99.90
32877;DHT22;19226;51.600;8.034;2023-05-02T17:27:20;15.90;99.90
32877;DHT22;19226;51.600;8.034;2023-05-02T17:30:05;15.80;99.90
32877;DHT22;19226;51.600;8.034;2023-05-02T17:32:50;15.80;99.90
32877;DHT22;19226;51.600;8.034;2023-05-02T17:35:34;15.70;99.90
32877;DHT22;19226;51.600;8.034;2023-05-02T17:38:19;15.60;99.90
32877;DHT22;19226;51.600;8.034;2023-05-02T17:41:03;15.40;99.90
32877;DHT22;19226;51.600;8.034;2023-05-02T17:43:49;15.30;99.90
32877;DHT22;19226;51.600;8.034;2023-05-02T17:46:33;15.00;99.90
32877;DHT22;19226;51.600;8.034;2023-05-02T17:49:18;15.00;99.90
32877;DHT22;19226;51.600;8.034;2023-05-02T17:52:02;14.70;99.90
32877;DHT22;19226;51.600;8.034;2023-05-02T17:54:48;14.80;99.90
32877;DHT22;19226;51.600;8.034;2023-05-02T17:57:33;14.70;99.90
32877;DHT22;19226;51.600;8.034;2023-05-02T18:00:18;14.70;99.90